sensor_id;sensor_type;location;lat;lon;timestamp;pressure;altitude;pressure_sealevel;temperature;humidity
19884;BME280;10104;50.732;10.174;2022-07-05T00:01:00;98188.97;;;15.83;60.26
19884;BME280;10104;50.732;10.174;2022-07-05T00:03:22;98193.38;;;15.64;61.24
19884;BME280;10104;50.732;10.174;2022-07-05T00:05:43;98201.22;;;15.59;61.73
19884;BME280;10104;50.732;10.174;2022-07-05T00:08:05;98205.94;;;15.57;61.84
19884;BME280;10104;50.732;10.174;2022-07-05T00:10:27;98205.94;;;15.57;62.58
19884;BME280;10104;50.732;10.174;2022-07-05T00:12:48;98206.75;;;15.64;62.13
19884;BME280;10104;50.732;10.174;2022-07-05T00:15:10;98210.03;;;15.66;60.86
19884;BME280;10104;50.732;10.174;2022-07-05T00:17:31;98212.09;;;15.51;61.88
19884;BME280;10104;50.732;10.174;2022-07-05T00:19:52;98207.81;;;15.37;62.54
19884;BME280;10104;50.732;10.174;2022-07-05T00:22:14;98209.91;;;15.35;63.17
19884;BME280;10104;50.732;10.174;2022-07-05T00:24:36;98209.28;;;15.33;63.77
19884;BME280;10104;50.732;10.174;2022-07-05T00:26:57;98203.69;;;15.48;62.35
19884;BME280;10104;50.732;10.174;2022-07-05T00:29:19;98204.59;;;15.22;64.48
19884;BME280;10104;50.732;10.174;2022-07-05T00:31:40;98204.81;;;15.14;64.31
19884;BME280;10104;50.732;10.174;2022-07-05T00:34:02;98197.28;;;15.04;64.97
19884;BME280;10104;50.732;10.174;2022-07-05T00:36:23;98200.53;;;15.06;63.98
19884;BME280;10104;50.732;10.174;2022-07-05T00:38:45;98199.75;;;15.06;63.14
19884;BME280;10104;50.732;10.174;2022-07-05T00:41:06;98199.31;;;15.02;62.92
19884;BME280;10104;50.732;10.174;2022-07-05T00:43:28;98191.94;;;14.97;62.78
19884;BME280;10104;50.732;10.174;2022-07-05T00:45:49;98199.13;;;14.90;63.62
19884;BME280;10104;50.732;10.174;2022-07-05T00:48:11;98200.19;;;14.76;63.63
19884;BME280;10104;50.732;10.174;2022-07-05T00:50:33;98200.63;;;14.60;65.06
19884;BME280;10104;50.732;10.174;2022-07-05T00:52:56;98205.13;;;14.53;65.08
19884;BME280;10104;50.732;10.174;2022-07-05T00:55:17;98203.47;;;14.45;68.04
19884;BME280;10104;50.732;10.174;2022-07-05T00:57:39;98198.97;;;14.39;68.25
19884;BME280;10104;50.732;10.174;2022-07-05T01:00:00;98204.28;;;14.46;67.07
19884;BME280;10104;50.732;10.174;2022-07-05T01:02:22;98201.44;;;14.47;67.24
19884;BME280;10104;50.732;10.174;2022-07-05T01:04:48;98208.81;;;14.52;66.07
19884;BME280;10104;50.732;10.174;2022-07-05T01:07:10;98205.31;;;14.51;66.15
19884;BME280;10104;50.732;10.174;2022-07-05T01:09:33;98200.81;;;14.45;66.31
19884;BME280;10104;50.732;10.174;2022-07-05T01:11:55;98201.63;;;14.39;67.71
19884;BME280;10104;50.732;10.174;2022-07-05T01:14:22;98201.63;;;14.39;67.03
19884;BME280;10104;50.732;10.174;2022-07-05T01:16:44;98199.59;;;14.41;67.71
19884;BME280;10104;50.732;10.174;2022-07-05T01:19:06;98200.59;;;14.40;66.49
19884;BME280;10104;50.732;10.174;2022-07-05T01:21:28;98198.97;;;14.39;65.76
19884;BME280;10104;50.732;10.174;2022-07-05T01:23:51;98196.50;;;14.31;65.10
19884;BME280;10104;50.732;10.174;2022-07-05T01:26:12;98208.34;;;14.15;65.60
19884;BME280;10104;50.732;10.174;2022-07-05T01:28:34;98198.91;;;14.06;66.12
19884;BME280;10104;50.732;10.174;2022-07-05T01:30:55;98203.78;;;13.96;67.36
19884;BME280;10104;50.732;10.174;2022-07-05T01:33:17;98204.00;;;13.88;68.91
19884;BME280;10104;50.732;10.174;2022-07-05T01:35:39;98193.34;;;13.82;69.46
19884;BME280;10104;50.732;10.174;2022-07-05T01:38:01;98199.47;;;13.75;69.92
19884;BME280;10104;50.732;10.174;2022-07-05T01:40:22;98201.91;;;13.84;68.75
19884;BME280;10104;50.732;10.174;2022-07-05T01:42:45;98198.25;;;13.85;67.87
19884;BME280;10104;50.732;10.174;2022-07-05T01:45:06;98198.69;;;13.88;66.86
19884;BME280;10104;50.732;10.174;2022-07-05T01:47:28;98194.16;;;13.82;67.58
19884;BME280;10104;50.732;10.174;2022-07-05T01:49:52;98199.47;;;13.75;67.86
19884;BME280;10104;50.732;10.174;2022-07-05T01:52:16;98197.97;;;13.60;68.97
19884;BME280;10104;50.732;10.174;2022-07-05T01:54:38;98197.13;;;13.59;69.06
19884;BME280;10104;50.732;10.174;2022-07-05T01:57:00;98192.84;;;13.58;69.62
19884;BME280;10104;50.732;10.174;2022-07-05T01:59:21;98193.91;;;13.64;68.64
19884;BME280;10104;50.732;10.174;2022-07-05T02:01:43;98191.00;;;13.59;68.83
19884;BME280;10104;50.732;10.174;2022-07-05T02:04:06;98196.06;;;13.47;70.77
19884;BME280;10104;50.732;10.174;2022-07-05T02:06:30;98194.47;;;13.53;69.85
19884;BME280;10104;50.732;10.174;2022-07-05T02:08:51;98197.97;;;13.60;68.83
19884;BME280;10104;50.732;10.174;2022-07-05T02:11:13;98194.47;;;13.59;67.78
19884;BME280;10104;50.732;10.174;2022-07-05T02:13:34;98192.41;;;13.48;68.58
19884;BME280;10104;50.732;10.174;2022-07-05T02:15:56;98190.50;;;13.35;70.33
19884;BME280;10104;50.732;10.174;2022-07-05T02:18:17;98199.16;;;13.44;68.46
19884;BME280;10104;50.732;10.174;2022-07-05T02:20:40;98192.50;;;13.27;70.43
19884;BME280;10104;50.732;10.174;2022-07-05T02:23:01;98198.59;;;13.21;70.72
19884;BME280;10104;50.732;10.174;2022-07-05T02:25:23;98201.91;;;13.23;70.30
19884;BME280;10104;50.732;10.174;2022-07-05T02:27:45;98200.25;;;13.22;70.88
19884;BME280;10104;50.732;10.174;2022-07-05T02:30:07;98195.78;;;13.29;69.83
19884;BME280;10104;50.732;10.174;2022-07-05T02:32:28;98200.16;;;13.43;68.86
19884;BME280;10104;50.732;10.174;2022-07-05T02:34:52;98200.31;;;13.35;68.82
19884;BME280;10104;50.732;10.174;2022-07-05T02:37:16;98199.84;;;13.18;70.83
19884;BME280;10104;50.732;10.174;2022-07-05T02:39:37;98205.78;;;13.20;69.70
19884;BME280;10104;50.732;10.174;2022-07-05T02:41:59;98207.13;;;13.10;70.70
19884;BME280;10104;50.732;10.174;2022-07-05T02:44:20;98200.97;;;13.09;70.58
19884;BME280;10104;50.732;10.174;2022-07-05T02:46:42;98205.75;;;13.14;70.00
19884;BME280;10104;50.732;10.174;2022-07-05T02:49:03;98200.06;;;13.23;69.49
19884;BME280;10104;50.732;10.174;2022-07-05T02:51:25;98199.06;;;13.24;68.71
19884;BME280;10104;50.732;10.174;2022-07-05T02:53:47;98208.53;;;13.06;69.58
19884;BME280;10104;50.732;10.174;2022-07-05T02:56:08;98207.03;;;12.96;70.51
19884;BME280;10104;50.732;10.174;2022-07-05T02:58:30;98198.47;;;12.94;70.24
19884;BME280;10104;50.732;10.174;2022-07-05T03:00:51;98205.41;;;12.95;69.32
19884;BME280;10104;50.732;10.174;2022-07-05T03:03:14;98207.16;;;12.82;71.41
19884;BME280;10104;50.732;10.174;2022-07-05T03:05:36;98203.44;;;12.76;71.87
19884;BME280;10104;50.732;10.174;2022-07-05T03:07:57;98213.31;;;12.82;70.80
19884;BME280;10104;50.732;10.174;2022-07-05T03:10:19;98204.09;;;12.85;70.19
19884;BME280;10104;50.732;10.174;2022-07-05T03:12:40;98203.22;;;12.78;70.89
19884;BME280;10104;50.732;10.174;2022-07-05T03:15:02;98212.75;;;12.66;72.38
19884;BME280;10104;50.732;10.174;2022-07-05T03:17:31;98214.84;;;12.70;71.06
19884;BME280;10104;50.732;10.174;2022-07-05T03:19:52;98217.09;;;12.73;70.93
19884;BME280;10104;50.732;10.174;2022-07-05T03:22:14;98214.34;;;12.60;72.03
19884;BME280;10104;50.732;10.174;2022-07-05T03:24:35;98216.41;;;12.58;72.24
19884;BME280;10104;50.732;10.174;2022-07-05T03:26:57;98215.34;;;12.59;72.46
19884;BME280;10104;50.732;10.174;2022-07-05T03:29:19;98212.16;;;12.64;71.81
19884;BME280;10104;50.732;10.174;2022-07-05T03:31:40;98210.31;;;12.64;71.53
19884;BME280;10104;50.732;10.174;2022-07-05T03:34:02;98215.63;;;12.64;71.39
19884;BME280;10104;50.732;10.174;2022-07-05T03:36:23;98212.47;;;12.54;70.90
19884;BME280;10104;50.732;10.174;2022-07-05T03:38:45;98219.53;;;12.40;73.29
19884;BME280;10104;50.732;10.174;2022-07-05T03:41:07;98211.56;;;12.40;73.42
19884;BME280;10104;50.732;10.174;2022-07-05T03:43:28;98216.06;;;12.40;74.50
19884;BME280;10104;50.732;10.174;2022-07-05T03:45:50;98211.59;;;12.47;73.71
19884;BME280;10104;50.732;10.174;2022-07-05T03:48:11;98223.09;;;12.54;72.37
19884;BME280;10104;50.732;10.174;2022-07-05T03:50:53;98230.41;;;12.45;72.76
19884;BME280;10104;50.732;10.174;2022-07-05T03:53:15;98225.44;;;12.42;73.46
19884;BME280;10104;50.732;10.174;2022-07-05T03:55:37;98227.34;;;12.48;73.03
19884;BME280;10104;50.732;10.174;2022-07-05T03:57:58;98228.91;;;12.64;72.32
19884;BME280;10104;50.732;10.174;2022-07-05T04:00:20;98228.34;;;12.47;73.38
19884;BME280;10104;50.732;10.174;2022-07-05T04:02:42;98229.75;;;12.43;73.26
19884;BME280;10104;50.732;10.174;2022-07-05T04:05:04;98241.38;;;12.64;72.63
19884;BME280;10104;50.732;10.174;2022-07-05T04:07:26;98237.25;;;12.61;72.18
19884;BME280;10104;50.732;10.174;2022-07-05T04:09:47;98236.66;;;12.38;75.08
19884;BME280;10104;50.732;10.174;2022-07-05T04:12:09;98231.53;;;12.36;75.33
19884;BME280;10104;50.732;10.174;2022-07-05T04:14:31;98239.53;;;12.64;74.84
19884;BME280;10104;50.732;10.174;2022-07-05T04:16:52;98246.94;;;12.47;75.87
19884;BME280;10104;50.732;10.174;2022-07-05T04:19:14;98244.97;;;12.35;77.76
19884;BME280;10104;50.732;10.174;2022-07-05T04:21:36;98238.66;;;12.36;78.04
19884;BME280;10104;50.732;10.174;2022-07-05T04:23:58;98240.56;;;12.42;78.86
19884;BME280;10104;50.732;10.174;2022-07-05T04:26:19;98243.25;;;12.70;78.73
19884;BME280;10104;50.732;10.174;2022-07-05T04:28:41;98248.16;;;12.73;77.47
19884;BME280;10104;50.732;10.174;2022-07-05T04:31:03;98236.47;;;12.67;77.59
19884;BME280;10104;50.732;10.174;2022-07-05T04:33:24;98233.44;;;12.70;78.07
19884;BME280;10104;50.732;10.174;2022-07-05T04:35:46;98241.34;;;12.91;78.01
19884;BME280;10104;50.732;10.174;2022-07-05T04:38:08;98242.69;;;13.02;78.76
19884;BME280;10104;50.732;10.174;2022-07-05T04:40:29;98240.31;;;12.86;79.85
19884;BME280;10104;50.732;10.174;2022-07-05T04:42:51;98240.75;;;12.89;78.95
19884;BME280;10104;50.732;10.174;2022-07-05T04:45:12;98240.34;;;12.92;79.92
19884;BME280;10104;50.732;10.174;2022-07-05T04:47:34;98251.16;;;13.12;79.86
19884;BME280;10104;50.732;10.174;2022-07-05T04:49:56;98244.97;;;13.12;79.58
19884;BME280;10104;50.732;10.174;2022-07-05T04:52:18;98241.94;;;13.15;79.93
19884;BME280;10104;50.732;10.174;2022-07-05T04:54:40;98254.31;;;13.29;79.36
19884;BME280;10104;50.732;10.174;2022-07-05T04:57:02;98250.06;;;13.41;79.35
19884;BME280;10104;50.732;10.174;2022-07-05T04:59:24;98249.69;;;13.44;79.75
19884;BME280;10104;50.732;10.174;2022-07-05T05:01:46;98257.50;;;13.52;79.10
19884;BME280;10104;50.732;10.174;2022-07-05T05:04:08;98249.16;;;13.62;78.87
19884;BME280;10104;50.732;10.174;2022-07-05T05:06:29;98263.53;;;13.74;78.46
19884;BME280;10104;50.732;10.174;2022-07-05T05:08:51;98258.44;;;13.79;79.06
19884;BME280;10104;50.732;10.174;2022-07-05T05:11:12;98263.16;;;13.90;77.94
19884;BME280;10104;50.732;10.174;2022-07-05T05:13:34;98265.25;;;14.01;77.99
19884;BME280;10104;50.732;10.174;2022-07-05T05:15:56;98266.91;;;14.09;78.00
19884;BME280;10104;50.732;10.174;2022-07-05T05:18:17;98269.22;;;14.18;77.64
19884;BME280;10104;50.732;10.174;2022-07-05T05:20:39;98265.13;;;14.29;76.96
19884;BME280;10104;50.732;10.174;2022-07-05T05:23:01;98259.19;;;14.34;77.67
19884;BME280;10104;50.732;10.174;2022-07-05T05:25:22;98267.66;;;14.44;77.29
19884;BME280;10104;50.732;10.174;2022-07-05T05:27:49;98270.09;;;14.52;77.24
19884;BME280;10104;50.732;10.174;2022-07-05T05:30:12;98271.34;;;14.63;77.16
19884;BME280;10104;50.732;10.174;2022-07-05T05:32:34;98273.81;;;14.71;77.37
19884;BME280;10104;50.732;10.174;2022-07-05T05:34:55;98274.44;;;14.79;76.74
19884;BME280;10104;50.732;10.174;2022-07-05T05:37:16;98276.47;;;14.90;76.28
19884;BME280;10104;50.732;10.174;2022-07-05T05:39:38;98279.75;;;14.99;76.29
19884;BME280;10104;50.732;10.174;2022-07-05T05:41:59;98278.69;;;15.07;76.13
19884;BME280;10104;50.732;10.174;2022-07-05T05:44:21;98286.50;;;15.15;76.23
19884;BME280;10104;50.732;10.174;2022-07-05T05:46:42;98283.63;;;15.23;75.14
19884;BME280;10104;50.732;10.174;2022-07-05T05:49:04;98281.34;;;15.33;74.55
19884;BME280;10104;50.732;10.174;2022-07-05T05:51:25;98286.66;;;15.39;74.72
19884;BME280;10104;50.732;10.174;2022-07-05T05:53:47;98286.84;;;15.51;73.87
19884;BME280;10104;50.732;10.174;2022-07-05T05:56:08;98294.22;;;15.62;73.13
19884;BME280;10104;50.732;10.174;2022-07-05T05:58:30;98288.66;;;15.70;72.80
19884;BME280;10104;50.732;10.174;2022-07-05T06:00:52;98294.59;;;15.79;72.47
19884;BME280;10104;50.732;10.174;2022-07-05T06:03:15;98287.97;;;15.88;71.89
19884;BME280;10104;50.732;10.174;2022-07-05T06:05:36;98294.91;;;16.02;71.44
19884;BME280;10104;50.732;10.174;2022-07-05T06:07:58;98300.38;;;16.14;70.82
19884;BME280;10104;50.732;10.174;2022-07-05T06:10:24;98295.38;;;16.24;70.55
19884;BME280;10104;50.732;10.174;2022-07-05T06:12:46;98301.31;;;16.33;69.92
19884;BME280;10104;50.732;10.174;2022-07-05T06:15:08;98296.91;;;16.45;69.38
19884;BME280;10104;50.732;10.174;2022-07-05T06:17:38;98296.22;;;16.56;68.68
19884;BME280;10104;50.732;10.174;2022-07-05T06:20:04;98292.06;;;16.67;68.38
19884;BME280;10104;50.732;10.174;2022-07-05T06:22:25;98291.66;;;16.94;66.98
19884;BME280;10104;50.732;10.174;2022-07-05T06:24:47;98291.69;;;17.13;66.82
19884;BME280;10104;50.732;10.174;2022-07-05T06:27:28;98297.00;;;17.19;66.97
19884;BME280;10104;50.732;10.174;2022-07-05T06:29:52;98298.88;;;17.37;66.04
19884;BME280;10104;50.732;10.174;2022-07-05T06:32:14;98289.22;;;17.54;64.57
19884;BME280;10104;50.732;10.174;2022-07-05T06:34:35;98296.31;;;17.67;65.05
19884;BME280;10104;50.732;10.174;2022-07-05T06:36:58;98297.00;;;17.81;63.81
19884;BME280;10104;50.732;10.174;2022-07-05T06:39:19;98288.41;;;17.90;63.10
19884;BME280;10104;50.732;10.174;2022-07-05T06:41:40;98290.31;;;18.19;60.03
19884;BME280;10104;50.732;10.174;2022-07-05T06:44:02;98282.63;;;18.23;60.71
19884;BME280;10104;50.732;10.174;2022-07-05T06:46:43;98287.00;;;18.36;59.56
19884;BME280;10104;50.732;10.174;2022-07-05T06:49:05;98280.56;;;18.55;58.70
19884;BME280;10104;50.732;10.174;2022-07-05T06:51:26;98280.00;;;18.76;56.37
19884;BME280;10104;50.732;10.174;2022-07-05T06:53:48;98283.41;;;18.83;57.50
19884;BME280;10104;50.732;10.174;2022-07-05T06:56:26;98286.69;;;18.97;57.15
19884;BME280;10104;50.732;10.174;2022-07-05T06:58:48;98282.38;;;19.08;56.09
19884;BME280;10104;50.732;10.174;2022-07-05T07:01:28;98287.63;;;19.26;55.70
19884;BME280;10104;50.732;10.174;2022-07-05T07:03:51;98288.44;;;19.38;55.99
19884;BME280;10104;50.732;10.174;2022-07-05T07:06:32;98277.03;;;19.54;55.92
19884;BME280;10104;50.732;10.174;2022-07-05T07:08:54;98278.94;;;19.82;53.78
19884;BME280;10104;50.732;10.174;2022-07-05T07:11:33;98284.88;;;19.96;53.10
19884;BME280;10104;50.732;10.174;2022-07-05T07:13:54;98291.88;;;19.97;52.84
19884;BME280;10104;50.732;10.174;2022-07-05T07:16:16;98292.63;;;20.20;52.54
19884;BME280;10104;50.732;10.174;2022-07-05T07:18:37;98291.41;;;20.40;51.19
19884;BME280;10104;50.732;10.174;2022-07-05T07:21:19;98297.56;;;20.52;51.85
19884;BME280;10104;50.732;10.174;2022-07-05T07:23:40;98293.19;;;20.79;50.77
19884;BME280;10104;50.732;10.174;2022-07-05T07:26:02;98291.78;;;20.93;49.87
19884;BME280;10104;50.732;10.174;2022-07-05T07:28:24;98292.13;;;21.14;49.81
19884;BME280;10104;50.732;10.174;2022-07-05T07:30:45;98297.31;;;21.15;49.82
19884;BME280;10104;50.732;10.174;2022-07-05T07:33:07;98298.91;;;21.33;49.27
19884;BME280;10104;50.732;10.174;2022-07-05T07:35:42;98297.72;;;21.62;47.60
19884;BME280;10104;50.732;10.174;2022-07-05T07:38:04;98304.06;;;21.73;47.47
19884;BME280;10104;50.732;10.174;2022-07-05T07:40:25;98304.84;;;21.90;45.57
19884;BME280;10104;50.732;10.174;2022-07-05T07:42:47;98303.59;;;21.98;45.04
19884;BME280;10104;50.732;10.174;2022-07-05T07:45:09;98298.63;;;22.11;45.89
19884;BME280;10104;50.732;10.174;2022-07-05T07:47:31;98300.47;;;22.28;45.06
19884;BME280;10104;50.732;10.174;2022-07-05T07:49:53;98300.50;;;22.33;44.38
19884;BME280;10104;50.732;10.174;2022-07-05T07:52:14;98302.28;;;22.49;44.88
19884;BME280;10104;50.732;10.174;2022-07-05T07:54:36;98305.41;;;22.63;43.40
19884;BME280;10104;50.732;10.174;2022-07-05T07:56:58;98310.22;;;22.82;43.24
19884;BME280;10104;50.732;10.174;2022-07-05T07:59:20;98307.22;;;22.84;43.24
19884;BME280;10104;50.732;10.174;2022-07-05T08:01:42;98315.38;;;23.21;42.33
19884;BME280;10104;50.732;10.174;2022-07-05T08:04:05;98306.09;;;23.44;40.08
19884;BME280;10104;50.732;10.174;2022-07-05T08:06:27;98308.22;;;23.42;41.77
19884;BME280;10104;50.732;10.174;2022-07-05T08:08:49;98299.31;;;23.46;41.34
19884;BME280;10104;50.732;10.174;2022-07-05T08:11:12;98297.94;;;23.75;41.33
19884;BME280;10104;50.732;10.174;2022-07-05T08:13:33;98299.94;;;24.05;40.00
19884;BME280;10104;50.732;10.174;2022-07-05T08:15:55;98296.25;;;24.22;39.32
19884;BME280;10104;50.732;10.174;2022-07-05T08:18:17;98299.00;;;24.42;38.88
19884;BME280;10104;50.732;10.174;2022-07-05T08:20:57;98301.72;;;24.47;38.38
19884;BME280;10104;50.732;10.174;2022-07-05T08:23:37;98303.66;;;24.67;38.66
19884;BME280;10104;50.732;10.174;2022-07-05T08:25:59;98306.44;;;24.92;37.30
19884;BME280;10104;50.732;10.174;2022-07-05T08:28:20;98298.56;;;25.11;36.45
19884;BME280;10104;50.732;10.174;2022-07-05T08:30:42;98292.31;;;25.20;37.14
19884;BME280;10104;50.732;10.174;2022-07-05T08:33:03;98293.63;;;25.43;35.95
19884;BME280;10104;50.732;10.174;2022-07-05T08:35:25;98303.97;;;25.26;36.08
19884;BME280;10104;50.732;10.174;2022-07-05T08:37:46;98297.72;;;25.35;36.41
19884;BME280;10104;50.732;10.174;2022-07-05T08:40:08;98297.22;;;25.23;37.17
19884;BME280;10104;50.732;10.174;2022-07-05T08:42:30;98295.56;;;25.27;37.25
19884;BME280;10104;50.732;10.174;2022-07-05T08:44:51;98295.03;;;25.35;36.75
19884;BME280;10104;50.732;10.174;2022-07-05T08:47:14;98304.78;;;25.36;36.74
19884;BME280;10104;50.732;10.174;2022-07-05T08:49:37;98294.97;;;25.51;36.16
19884;BME280;10104;50.732;10.174;2022-07-05T08:52:00;98294.44;;;25.44;36.80
19884;BME280;10104;50.732;10.174;2022-07-05T08:54:24;98296.56;;;25.77;36.32
19884;BME280;10104;50.732;10.174;2022-07-05T08:56:46;98295.41;;;26.03;36.10
19884;BME280;10104;50.732;10.174;2022-07-05T08:59:27;98287.03;;;26.49;34.71
19884;BME280;10104;50.732;10.174;2022-07-05T09:01:49;98291.19;;;26.41;35.84
19884;BME280;10104;50.732;10.174;2022-07-05T09:04:12;98276.66;;;26.56;35.02
19884;BME280;10104;50.732;10.174;2022-07-05T09:06:38;98289.63;;;26.69;34.78
19884;BME280;10104;50.732;10.174;2022-07-05T09:09:01;98304.25;;;26.73;34.36
19884;BME280;10104;50.732;10.174;2022-07-05T09:11:29;98290.72;;;26.68;34.38
19884;BME280;10104;50.732;10.174;2022-07-05T09:13:52;98291.66;;;26.53;34.96
19884;BME280;10104;50.732;10.174;2022-07-05T09:16:33;98287.81;;;26.54;33.81
19884;BME280;10104;50.732;10.174;2022-07-05T09:18:55;98290.41;;;26.31;34.21
19884;BME280;10104;50.732;10.174;2022-07-05T09:21:25;98287.75;;;26.15;34.98
19884;BME280;10104;50.732;10.174;2022-07-05T09:26:15;98287.03;;;26.49;33.74
19884;BME280;10104;50.732;10.174;2022-07-05T09:28:37;98289.25;;;26.47;34.08
19884;BME280;10104;50.732;10.174;2022-07-05T09:30:58;98286.88;;;26.74;33.38
19884;BME280;10104;50.732;10.174;2022-07-05T09:33:20;98274.94;;;26.70;32.88
19884;BME280;10104;50.732;10.174;2022-07-05T09:35:52;98282.91;;;26.56;33.22
19884;BME280;10104;50.732;10.174;2022-07-05T09:38:23;98288.13;;;26.53;33.36
19884;BME280;10104;50.732;10.174;2022-07-05T09:40:56;98281.91;;;26.47;33.82
19884;BME280;10104;50.732;10.174;2022-07-05T09:43:20;98281.44;;;26.74;33.10
19884;BME280;10104;50.732;10.174;2022-07-05T09:45:56;98272.94;;;26.81;32.67
19884;BME280;10104;50.732;10.174;2022-07-05T09:48:18;98271.56;;;26.88;33.85
19884;BME280;10104;50.732;10.174;2022-07-05T09:50:50;98274.31;;;26.83;33.62
19884;BME280;10104;50.732;10.174;2022-07-05T09:53:53;98273.66;;;27.02;33.05
19884;BME280;10104;50.732;10.174;2022-07-05T09:56:21;98282.19;;;27.19;33.14
19884;BME280;10104;50.732;10.174;2022-07-05T09:58:45;98278.75;;;27.08;32.95
19884;BME280;10104;50.732;10.174;2022-07-05T10:01:31;98276.47;;;27.20;32.23
19884;BME280;10104;50.732;10.174;2022-07-05T10:03:58;98277.75;;;27.28;31.92
19884;BME280;10104;50.732;10.174;2022-07-05T10:06:22;98276.56;;;27.39;30.95
19884;BME280;10104;50.732;10.174;2022-07-05T10:08:44;98276.41;;;27.54;30.55
19884;BME280;10104;50.732;10.174;2022-07-05T10:11:06;98267.16;;;27.55;31.22
19884;BME280;10104;50.732;10.174;2022-07-05T10:13:28;98269.53;;;27.86;31.50
19884;BME280;10104;50.732;10.174;2022-07-05T10:15:49;98280.91;;;28.11;31.59
19884;BME280;10104;50.732;10.174;2022-07-05T10:18:12;98282.63;;;28.07;30.51
19884;BME280;10104;50.732;10.174;2022-07-05T10:20:41;98279.81;;;28.12;31.68
19884;BME280;10104;50.732;10.174;2022-07-05T10:23:04;98274.78;;;28.25;31.47
19884;BME280;10104;50.732;10.174;2022-07-05T10:25:27;98277.72;;;28.28;32.27
19884;BME280;10104;50.732;10.174;2022-07-05T10:27:51;98277.72;;;28.28;31.77
19884;BME280;10104;50.732;10.174;2022-07-05T10:30:15;98274.78;;;28.25;31.73
19884;BME280;10104;50.732;10.174;2022-07-05T10:32:38;98267.53;;;28.15;31.90
19884;BME280;10104;50.732;10.174;2022-07-05T10:35:00;98269.56;;;28.47;30.68
19884;BME280;10104;50.732;10.174;2022-07-05T10:37:26;98261.88;;;28.68;30.38
19884;BME280;10104;50.732;10.174;2022-07-05T10:39:51;98268.75;;;28.84;32.40
19884;BME280;10104;50.732;10.174;2022-07-05T10:42:13;98267.94;;;28.83;29.03
19884;BME280;10104;50.732;10.174;2022-07-05T10:44:35;98270.81;;;28.92;28.93
19884;BME280;10104;50.732;10.174;2022-07-05T10:47:09;98268.31;;;29.09;28.40
19884;BME280;10104;50.732;10.174;2022-07-05T10:49:35;98270.47;;;29.12;29.22
19884;BME280;10104;50.732;10.174;2022-07-05T10:51:56;98265.22;;;29.62;28.42
19884;BME280;10104;50.732;10.174;2022-07-05T10:54:18;98253.06;;;29.82;27.80
19884;BME280;10104;50.732;10.174;2022-07-05T10:56:39;98255.72;;;29.87;28.39
19884;BME280;10104;50.732;10.174;2022-07-05T10:59:09;98260.38;;;29.86;29.11
19884;BME280;10104;50.732;10.174;2022-07-05T11:01:34;98263.69;;;29.42;30.03
19884;BME280;10104;50.732;10.174;2022-07-05T11:11:32;98262.41;;;28.70;29.94
19884;BME280;10104;50.732;10.174;2022-07-05T11:14:03;98265.00;;;28.80;30.18
19884;BME280;10104;50.732;10.174;2022-07-05T11:16:31;98272.56;;;28.64;30.02
19884;BME280;10104;50.732;10.174;2022-07-05T11:19:04;98269.56;;;28.47;30.54
19884;BME280;10104;50.732;10.174;2022-07-05T11:21:26;98265.56;;;28.39;30.53
19884;BME280;10104;50.732;10.174;2022-07-05T11:23:48;98262.72;;;28.31;30.51
19884;BME280;10104;50.732;10.174;2022-07-05T11:26:17;98260.13;;;28.21;30.94
19884;BME280;10104;50.732;10.174;2022-07-05T11:28:43;98247.41;;;28.11;31.38
19884;BME280;10104;50.732;10.174;2022-07-05T11:31:06;98261.28;;;28.33;30.80
19884;BME280;10104;50.732;10.174;2022-07-05T11:33:39;98261.44;;;28.61;29.22
19884;BME280;10104;50.732;10.174;2022-07-05T11:36:02;98249.84;;;28.74;27.06
19884;BME280;10104;50.732;10.174;2022-07-05T11:38:25;98246.72;;;28.80;27.72
19884;BME280;10104;50.732;10.174;2022-07-05T11:41:12;98247.75;;;28.84;29.37
19884;BME280;10104;50.732;10.174;2022-07-05T11:43:34;98248.38;;;28.95;28.98
19884;BME280;10104;50.732;10.174;2022-07-05T11:45:57;98254.16;;;29.07;29.05
19884;BME280;10104;50.732;10.174;2022-07-05T11:48:19;98251.19;;;29.22;28.55
19884;BME280;10104;50.732;10.174;2022-07-05T11:50:41;98243.34;;;29.34;28.05
19884;BME280;10104;50.732;10.174;2022-07-05T11:53:02;98253.38;;;29.53;28.38
19884;BME280;10104;50.732;10.174;2022-07-05T11:55:28;98235.91;;;29.67;28.36
19884;BME280;10104;50.732;10.174;2022-07-05T11:57:51;98229.63;;;29.81;26.93
19884;BME280;10104;50.732;10.174;2022-07-05T12:00:13;98226.47;;;29.87;26.83
19884;BME280;10104;50.732;10.174;2022-07-05T12:02:45;98229.22;;;30.37;26.65
19884;BME280;10104;50.732;10.174;2022-07-05T12:05:08;98229.72;;;30.75;26.36
19884;BME280;10104;50.732;10.174;2022-07-05T12:07:31;98227.91;;;30.70;26.29
19884;BME280;10104;50.732;10.174;2022-07-05T12:09:53;98216.19;;;30.92;26.40
19884;BME280;10104;50.732;10.174;2022-07-05T12:12:33;98209.63;;;31.02;25.67
19884;BME280;10104;50.732;10.174;2022-07-05T12:15:07;98212.75;;;31.09;25.73
19884;BME280;10104;50.732;10.174;2022-07-05T12:17:29;98216.66;;;31.16;25.19
19884;BME280;10104;50.732;10.174;2022-07-05T12:19:51;98213.69;;;31.35;25.10
19884;BME280;10104;50.732;10.174;2022-07-05T12:22:13;98215.69;;;32.00;25.00
19884;BME280;10104;50.732;10.174;2022-07-05T12:24:35;98203.63;;;32.96;23.43
19884;BME280;10104;50.732;10.174;2022-07-05T12:26:57;98207.88;;;34.07;22.93
19884;BME280;10104;50.732;10.174;2022-07-05T12:29:19;98203.59;;;34.60;22.40
19884;BME280;10104;50.732;10.174;2022-07-05T12:32:00;98212.13;;;35.57;22.41
19884;BME280;10104;50.732;10.174;2022-07-05T12:34:23;98198.72;;;35.92;21.25
19884;BME280;10104;50.732;10.174;2022-07-05T12:36:44;98202.38;;;36.48;20.62
19884;BME280;10104;50.732;10.174;2022-07-05T12:39:06;98202.50;;;37.07;19.60
19884;BME280;10104;50.732;10.174;2022-07-05T12:41:27;98196.28;;;37.42;19.65